createdAt,value
2022-09-15T00:01:20.010Z,99077.75
2022-09-15T00:03:48.788Z,99076.55
2022-09-15T00:06:17.364Z,99078.45
2022-09-15T00:08:45.073Z,99079.02
2022-09-15T00:11:19.760Z,99080.48
2022-09-15T00:13:47.524Z,99083.52
2022-09-15T00:16:16.856Z,99079.27
2022-09-15T00:18:45.397Z,99077.92
2022-09-15T00:21:19.588Z,99078.80
2022-09-15T00:23:48.414Z,99079.02
2022-09-15T00:26:22.487Z,99084.89
2022-09-15T00:28:51.363Z,99084.20
2022-09-15T00:31:21.882Z,99082.65
2022-09-15T00:33:52.417Z,99086.40
2022-09-15T00:36:21.924Z,99085.04
2022-09-15T00:38:50.339Z,99083.65
2022-09-15T00:41:20.843Z,99091.84
2022-09-15T00:44:04.595Z,99090.29
2022-09-15T00:46:41.375Z,99089.58
2022-09-15T00:49:23.761Z,99084.38
2022-09-15T00:52:00.764Z,99078.89
2022-09-15T00:54:37.762Z,99079.39
2022-09-15T00:57:16.143Z,99076.52
2022-09-15T00:59:44.515Z,99079.11
2022-09-15T01:02:19.879Z,99082.91
2022-09-15T01:04:48.175Z,99080.05
2022-09-15T01:07:21.631Z,99077.46
2022-09-15T01:09:57.271Z,99068.32
2022-09-15T01:12:26.116Z,99056.77
2022-09-15T01:14:55.159Z,99049.20
2022-09-15T01:17:44.427Z,99042.95
2022-09-15T01:20:33.894Z,99043.26
2022-09-15T01:23:31.163Z,99043.90
2022-09-15T01:26:07.619Z,99045.77
2022-09-15T01:28:50.324Z,99043.67
2022-09-15T01:31:29.600Z,99032.98
2022-09-15T01:34:09.491Z,99032.10
2022-09-15T01:36:41.250Z,99028.14
2022-09-15T01:39:37.595Z,99032.61
2022-09-15T01:42:09.773Z,99031.74
2022-09-15T01:44:52.415Z,99037.86
2022-09-15T01:47:21.684Z,99036.14
2022-09-15T01:50:01.349Z,99029.90
2022-09-15T01:52:30.743Z,99028.98
2022-09-15T01:55:02.407Z,99025.83
2022-09-15T01:57:30.107Z,99024.24
2022-09-15T01:59:57.900Z,99025.42
2022-09-15T02:02:42.656Z,99024.88
2022-09-15T02:05:26.215Z,99021.90
2022-09-15T02:08:06.260Z,99017.90
2022-09-15T02:11:12.947Z,99016.15
2022-09-15T02:14:17.359Z,99015.26
2022-09-15T02:16:50.179Z,99008.71
2022-09-15T02:19:32.944Z,99004.00
2022-09-15T02:22:10.744Z,99003.25
2022-09-15T02:24:44.208Z,99003.70
2022-09-15T02:27:17.935Z,98997.69
2022-09-15T02:29:48.743Z,98993.21
2022-09-15T02:32:19.428Z,98990.60
2022-09-15T02:34:51.772Z,98994.99
2022-09-15T02:37:21.592Z,98996.70
2022-09-15T02:39:55.048Z,98997.76
2022-09-15T02:42:28.092Z,98997.07
2022-09-15T02:44:56.477Z,98991.39
2022-09-15T02:47:24.513Z,98991.71
2022-09-15T02:49:52.179Z,98990.23
2022-09-15T02:52:20.244Z,98992.83
2022-09-15T02:54:48.250Z,98992.98
2022-09-15T02:57:16.589Z,98993.83
2022-09-15T03:00:02.908Z,98992.95
2022-09-15T03:02:31.277Z,98994.32
2022-09-15T03:04:59.133Z,98994.05
2022-09-15T03:07:28.567Z,98991.14
2022-09-15T03:09:56.412Z,98994.77
2022-09-15T03:12:25.093Z,98994.95
2022-09-15T03:14:52.722Z,98994.80
2022-09-15T03:17:20.424Z,98994.33
2022-09-15T03:19:48.092Z,98987.84
2022-09-15T03:22:15.857Z,98987.67
2022-09-15T03:24:43.925Z,98985.33
2022-09-15T03:27:11.581Z,98986.88
2022-09-15T03:29:39.428Z,98989.79
2022-09-15T03:32:07.059Z,98994.96
2022-09-15T03:34:34.721Z,98999.63
2022-09-15T03:37:02.509Z,98994.68
2022-09-15T03:39:30.508Z,98995.06
2022-09-15T03:41:58.257Z,98996.94
2022-09-15T03:44:26.105Z,98997.66
2022-09-15T03:46:53.805Z,99000.07
2022-09-15T03:49:21.588Z,98998.55
2022-09-15T03:51:49.396Z,99005.03
2022-09-15T03:54:17.933Z,99006.20
2022-09-15T03:56:49.112Z,99010.15
2022-09-15T03:59:19.032Z,99010.36
2022-09-15T04:01:48.234Z,99006.29
2022-09-15T04:04:16.920Z,99006.65
2022-09-15T04:06:45.089Z,99004.77
2022-09-15T04:09:12.874Z,99000.35
2022-09-15T04:11:41.043Z,98999.17
2022-09-15T04:14:08.694Z,98999.69
2022-09-15T04:16:36.556Z,98998.16
2022-09-15T04:19:05.045Z,98997.66
2022-09-15T04:21:32.793Z,98996.31
2022-09-15T04:24:00.555Z,98990.69
2022-09-15T04:26:34.457Z,98985.20
2022-09-15T04:29:04.848Z,98982.81
2022-09-15T04:31:34.240Z,98983.59
2022-09-15T04:34:02.570Z,98982.10
2022-09-15T04:36:31.460Z,98985.07
2022-09-15T04:38:59.424Z,98983.45
2022-09-15T04:41:27.902Z,98981.80
2022-09-15T04:43:55.706Z,98975.84
2022-09-15T04:46:23.567Z,98980.81
2022-09-15T04:48:52.226Z,98984.07
2022-09-15T04:51:22.240Z,98989.05
2022-09-15T04:53:50.471Z,98990.58
2022-09-15T04:56:21.654Z,98993.84
2022-09-15T04:59:03.808Z,98989.75
2022-09-15T05:01:35.614Z,98991.10
2022-09-15T05:04:04.614Z,98993.34
2022-09-15T05:06:34.938Z,98989.40
2022-09-15T05:09:09.820Z,98993.71
2022-09-15T05:11:38.741Z,98994.88
2022-09-15T05:14:06.795Z,98992.16
2022-09-15T05:16:34.549Z,98991.95
2022-09-15T05:19:05.618Z,98990.42
2022-09-15T05:21:33.998Z,98990.45
2022-09-15T05:24:02.374Z,98989.39
2022-09-15T05:26:30.279Z,98994.15
2022-09-15T05:28:58.306Z,98996.92
2022-09-15T05:31:29.208Z,98997.40
2022-09-15T05:33:57.577Z,98995.97
2022-09-15T05:36:25.717Z,98994.64
2022-09-15T05:38:56.610Z,98998.04
2022-09-15T05:41:26.955Z,98993.57
2022-09-15T05:43:59.863Z,98997.85
2022-09-15T05:46:29.385Z,99000.55
2022-09-15T05:48:58.540Z,99000.73
2022-09-15T05:51:26.486Z,99005.79
2022-09-15T05:53:54.181Z,99006.79
2022-09-15T05:56:22.452Z,99012.48
2022-09-15T05:58:50.187Z,99013.93
2022-09-15T06:01:21.184Z,99016.92
2022-09-15T06:03:49.799Z,99016.45
2022-09-15T06:06:17.829Z,99011.88
2022-09-15T06:08:52.777Z,99011.04
2022-09-15T06:11:26.231Z,99011.94
2022-09-15T06:13:54.599Z,99012.48
2022-09-15T06:16:24.581Z,99013.45
2022-09-15T06:18:53.588Z,99009.29
2022-09-15T06:21:27.534Z,99014.17
2022-09-15T06:23:57.177Z,99007.84
2022-09-15T06:26:26.302Z,99007.48
2022-09-15T06:28:56.619Z,99009.31
2022-09-15T06:31:26.421Z,99002.10
2022-09-15T06:33:56.129Z,99018.13
2022-09-15T06:36:27.463Z,99022.42
2022-09-15T06:38:55.742Z,99023.52
2022-09-15T06:41:23.603Z,99020.22
2022-09-15T06:43:52.208Z,99021.21
2022-09-15T06:46:23.940Z,99028.16
2022-09-15T06:48:53.516Z,99023.89
2022-09-15T06:51:24.635Z,99022.33
2022-09-15T06:53:53.595Z,99029.13
2022-09-15T06:56:23.351Z,99024.97
2022-09-15T06:58:51.739Z,99023.67
2022-09-15T07:01:29.948Z,99021.70
2022-09-15T07:03:59.369Z,99026.48
2022-09-15T07:06:31.973Z,99031.23
2022-09-15T07:09:00.633Z,99035.15
2022-09-15T07:11:30.740Z,99042.06
2022-09-15T07:13:59.282Z,99039.21
2022-09-15T07:16:27.309Z,99036.65
2022-09-15T07:18:57.186Z,99038.38
2022-09-15T07:21:24.900Z,99044.73
2022-09-15T07:23:52.831Z,99045.54
2022-09-15T07:26:24.029Z,99044.31
2022-09-15T07:28:55.670Z,99048.59
2022-09-15T07:31:25.792Z,99049.17
2022-09-15T07:33:53.945Z,99058.79
2022-09-15T07:36:22.744Z,99061.24
2022-09-15T07:38:52.311Z,99065.02
2022-09-15T07:41:25.748Z,99060.30
2022-09-15T07:43:56.676Z,99056.76
2022-09-15T07:46:27.024Z,99059.58
2022-09-15T07:48:58.773Z,99063.48
2022-09-15T07:51:27.308Z,99061.40
2022-09-15T07:53:55.939Z,99060.27
2022-09-15T07:56:24.889Z,99066.11
2022-09-15T07:58:54.196Z,99072.27
2022-09-15T08:01:23.272Z,99076.70
2022-09-15T08:03:53.992Z,99078.33
2022-09-15T08:06:24.919Z,99078.85
2022-09-15T08:08:59.260Z,99079.48
2022-09-15T08:11:28.990Z,99077.95
2022-09-15T08:13:57.589Z,99075.83
2022-09-15T08:16:27.207Z,99073.91
2022-09-15T08:18:56.337Z,99077.27
2022-09-15T08:21:24.843Z,99078.43
2022-09-15T08:23:58.423Z,99076.14
2022-09-15T08:26:29.097Z,99078.27
2022-09-15T08:28:58.190Z,99083.32
2022-09-15T08:31:26.412Z,99084.62
2022-09-15T08:33:56.341Z,99083.38
2022-09-15T08:36:28.179Z,99080.39
2022-09-15T08:38:57.497Z,99079.40
2022-09-15T08:41:49.488Z,99079.31
2022-09-15T08:44:41.396Z,99078.85
2022-09-15T08:47:19.517Z,99080.84
2022-09-15T08:50:02.507Z,99075.51
2022-09-15T08:52:48.467Z,99079.09
2022-09-15T08:55:57.068Z,99084.36
2022-09-15T08:58:34.760Z,99087.64
2022-09-15T09:01:12.199Z,99086.09
2022-09-15T09:03:49.435Z,99086.67
2022-09-15T09:06:45.792Z,99087.00
2022-09-15T09:09:38.236Z,99088.62
2022-09-15T09:12:41.218Z,99087.39
2022-09-15T09:15:27.968Z,99090.23
2022-09-15T09:17:58.354Z,99088.79
2022-09-15T09:20:52.696Z,99091.67
2022-09-15T09:23:27.869Z,99090.05
2022-09-15T09:25:57.481Z,99089.56
2022-09-15T09:28:53.109Z,99087.88
2022-09-15T09:31:23.383Z,99089.96
2022-09-15T09:33:53.566Z,99089.94
2022-09-15T09:36:22.005Z,99089.04
2022-09-15T09:38:50.915Z,99084.50
2022-09-15T09:41:26.144Z,99076.50
2022-09-15T09:43:56.553Z,99081.84
2022-09-15T09:46:24.384Z,99080.38
2022-09-15T09:49:02.984Z,99086.94
2022-09-15T09:51:55.683Z,99081.55
2022-09-15T09:54:27.355Z,99075.88
2022-09-15T09:56:57.564Z,99077.91
2022-09-15T09:59:41.820Z,99076.77
2022-09-15T10:02:12.355Z,99082.31
2022-09-15T10:04:42.505Z,99082.39
2022-09-15T10:07:13.089Z,99080.16
2022-09-15T10:09:49.982Z,99079.45
2022-09-15T10:12:40.085Z,99073.23
2022-09-15T10:15:27.264Z,99070.73
2022-09-15T10:17:56.590Z,99069.64
2022-09-15T10:20:46.805Z,99075.63
2022-09-15T10:23:18.015Z,99082.35
2022-09-15T10:26:01.620Z,99085.07
2022-09-15T10:28:29.497Z,99078.55
2022-09-15T10:31:13.688Z,99081.49
2022-09-15T10:33:46.194Z,99082.94
2022-09-15T10:36:17.905Z,99082.98
2022-09-15T10:38:54.698Z,99078.21
2022-09-15T10:41:29.183Z,99073.55
2022-09-15T10:44:25.095Z,99071.33
2022-09-15T10:47:14.881Z,99073.52
2022-09-15T10:50:10.397Z,99078.25
2022-09-15T10:53:00.985Z,99083.15
2022-09-15T10:55:52.654Z,99083.27
2022-09-15T10:58:38.961Z,99084.12
2022-09-15T11:01:30.223Z,99077.27
2022-09-15T11:04:11.164Z,99069.69
2022-09-15T11:06:59.353Z,99070.69
2022-09-15T11:09:51.329Z,99074.30
2022-09-15T11:12:55.533Z,99081.75
2022-09-15T11:15:41.321Z,99079.98
2022-09-15T11:18:36.801Z,99080.33
2022-09-15T11:21:14.074Z,99077.32
2022-09-15T11:24:06.283Z,99071.15
2022-09-15T11:26:41.314Z,99070.30
2022-09-15T11:29:17.505Z,99072.75
2022-09-15T11:31:48.024Z,99077.18
2022-09-15T11:34:26.559Z,99080.64
2022-09-15T11:37:03.997Z,99073.52
2022-09-15T11:40:22.575Z,99069.20
2022-09-15T11:42:57.839Z,99069.87
2022-09-15T11:45:27.541Z,99071.19
2022-09-15T11:48:28.991Z,99062.61
2022-09-15T11:51:01.829Z,99065.95
2022-09-15T11:53:50.690Z,99054.95
2022-09-15T11:56:41.062Z,99048.67
2022-09-15T11:59:37.149Z,99054.91
2022-09-15T12:02:22.769Z,99058.61
2022-09-15T12:05:15.015Z,99059.30
2022-09-15T12:08:04.881Z,99070.62
2022-09-15T12:10:43.548Z,99074.82
2022-09-15T12:13:16.914Z,99078.11
2022-09-15T12:15:46.758Z,99077.42
2022-09-15T12:18:49.539Z,99073.73
2022-09-15T12:21:45.509Z,99074.66
2022-09-15T12:24:13.653Z,99084.96
2022-09-15T12:26:43.698Z,99085.80
2022-09-15T12:29:42.426Z,99084.11
2022-09-15T12:32:16.986Z,99089.27
2022-09-15T12:35:03.951Z,99090.63
2022-09-15T12:37:38.078Z,99085.70
2022-09-15T12:40:08.196Z,99083.61
2022-09-15T12:42:37.210Z,99080.23
2022-09-15T12:45:19.974Z,99085.73
2022-09-15T12:48:01.025Z,99081.31
2022-09-15T12:50:35.635Z,99080.08
2022-09-15T12:53:21.523Z,99074.08
2022-09-15T12:56:02.749Z,99077.52
2022-09-15T12:58:38.687Z,99078.86
2022-09-15T13:01:19.015Z,99075.05
2022-09-15T13:03:49.029Z,99072.61
2022-09-15T13:06:17.303Z,99069.60
2022-09-15T13:08:46.814Z,99072.42
2022-09-15T13:11:37.455Z,99068.27
2022-09-15T13:14:08.224Z,99071.59
2022-09-15T13:16:43.890Z,99069.41
2022-09-15T13:19:28.083Z,99068.30
2022-09-15T13:21:58.979Z,99071.73
2022-09-15T13:24:49.878Z,99067.65
2022-09-15T13:27:25.630Z,99061.39
2022-09-15T13:30:03.107Z,99064.29
2022-09-15T13:32:48.704Z,99061.14
2022-09-15T13:35:31.842Z,99055.52
2022-09-15T13:38:33.846Z,99050.73
2022-09-15T13:41:07.703Z,99045.36
2022-09-15T13:43:47.646Z,99040.10
2022-09-15T13:46:18.565Z,99033.17
2022-09-15T13:48:55.957Z,99031.62
2022-09-15T13:51:26.847Z,99030.48
2022-09-15T13:54:03.683Z,99039.92
2022-09-15T13:56:53.390Z,99039.09
2022-09-15T13:59:27.354Z,99039.89
2022-09-15T14:01:57.021Z,99034.98
2022-09-15T14:04:29.137Z,99034.71
2022-09-15T14:07:01.077Z,99028.76
2022-09-15T14:09:43.156Z,99025.61
2022-09-15T14:12:13.527Z,99021.82
2022-09-15T14:14:46.162Z,99022.29
2022-09-15T14:17:24.323Z,99020.69
2022-09-15T14:19:54.844Z,99021.53
2022-09-15T14:22:29.061Z,99023.10
2022-09-15T14:24:58.169Z,99023.56
2022-09-15T14:27:29.077Z,99018.25
2022-09-15T14:29:58.401Z,99012.02
2022-09-15T14:32:28.247Z,99013.86
2022-09-15T14:35:04.098Z,99013.77
2022-09-15T14:37:32.631Z,99012.98
2022-09-15T14:40:03.359Z,99016.38
2022-09-15T14:42:36.191Z,99015.17
2022-09-15T14:48:00.228Z,99003.76
2022-09-15T14:50:32.986Z,99003.36
2022-09-15T14:53:10.329Z,99001.02
2022-09-15T14:55:47.297Z,98997.83
2022-09-15T14:58:30.116Z,98994.39
2022-09-15T15:01:10.246Z,98993.02
2022-09-15T15:04:10.082Z,98998.17
2022-09-15T15:06:44.490Z,99001.36
2022-09-15T15:09:21.799Z,98997.11
2022-09-15T15:11:58.809Z,98989.98
2022-09-15T15:14:26.753Z,98991.23
2022-09-15T15:17:34.070Z,98991.24
2022-09-15T15:20:10.603Z,98984.30
2022-09-15T15:22:40.023Z,98982.05
2022-09-15T15:25:30.089Z,98979.76
2022-09-15T15:27:59.881Z,98985.15
2022-09-15T15:30:30.998Z,98983.29
2022-09-15T15:33:27.526Z,98982.42
2022-09-15T15:36:09.871Z,98983.38
2022-09-15T15:38:51.988Z,98982.77
2022-09-15T15:41:25.866Z,98988.04
2022-09-15T15:44:17.595Z,98985.27
2022-09-15T15:47:23.256Z,98984.20
2022-09-15T15:50:12.383Z,98980.11
2022-09-15T15:52:42.189Z,98985.88
2022-09-15T15:55:14.201Z,98987.56
2022-09-15T15:57:42.292Z,98992.52
2022-09-15T16:00:31.747Z,98991.37
2022-09-15T16:02:59.493Z,98992.12
2022-09-15T16:05:29.609Z,98994.72
2022-09-15T16:08:02.098Z,98995.59
2022-09-15T16:10:37.248Z,98996.44
2022-09-15T16:13:04.753Z,98995.65
2022-09-15T16:15:32.469Z,98992.29
2022-09-15T16:18:00.926Z,98986.71
2022-09-15T16:20:29.249Z,98990.29
2022-09-15T16:22:57.424Z,98994.56
2022-09-15T16:25:34.402Z,98994.07
2022-09-15T16:28:02.914Z,98993.60
2022-09-15T16:30:31.698Z,98991.48
2022-09-15T16:33:00.133Z,98989.88
2022-09-15T16:35:46.246Z,98992.84
2022-09-15T16:38:13.926Z,98996.58
2022-09-15T16:40:41.610Z,99000.27
2022-09-15T16:43:13.926Z,98994.60
2022-09-15T16:45:42.540Z,98997.46
2022-09-15T16:48:11.641Z,98997.27
2022-09-15T16:50:50.289Z,98997.16
2022-09-15T16:53:30.967Z,98997.72
2022-09-15T16:55:58.807Z,99003.67
2022-09-15T16:58:26.674Z,99008.83
2022-09-15T17:00:56.066Z,99009.32
2022-09-15T17:03:26.016Z,99004.78
2022-09-15T17:05:56.045Z,99005.44
2022-09-15T17:08:27.380Z,99005.79
2022-09-15T17:11:01.463Z,99008.86
2022-09-15T17:13:31.387Z,99008.88
2022-09-15T17:16:01.087Z,99008.65
2022-09-15T17:18:29.506Z,99010.27
2022-09-15T17:20:57.773Z,99013.70
2022-09-15T17:23:34.697Z,99012.91
2022-09-15T17:26:05.227Z,99011.68
2022-09-15T17:28:36.698Z,99010.45
2022-09-15T17:31:07.408Z,99006.48
2022-09-15T17:33:35.174Z,99008.84
2022-09-15T17:36:03.089Z,99007.84
2022-09-15T17:38:32.151Z,99011.27
2022-09-15T17:40:59.949Z,99010.66
2022-09-15T17:43:30.049Z,99014.96
2022-09-15T17:45:58.315Z,99017.20
2022-09-15T17:48:26.204Z,99019.83
2022-09-15T17:50:53.935Z,99018.27
2022-09-15T17:53:26.707Z,99016.19
2022-09-15T17:55:56.140Z,99018.37
2022-09-15T17:58:29.971Z,99019.67
2022-09-15T18:00:58.439Z,99030.95
2022-09-15T18:03:30.859Z,99029.48
2022-09-15T18:06:00.479Z,99027.53
2022-09-15T18:08:28.959Z,99027.05
2022-09-15T18:10:56.699Z,99029.20
2022-09-15T18:13:29.818Z,99031.73
2022-09-15T18:16:02.782Z,99031.41
2022-09-15T18:18:30.667Z,99028.73
2022-09-15T18:20:58.664Z,99027.98
2022-09-15T18:23:29.429Z,99026.80
2022-09-15T18:25:57.642Z,99028.14
2022-09-15T18:28:25.473Z,99026.73
2022-09-15T18:30:53.221Z,99025.25
2022-09-15T18:33:23.533Z,99027.77
2022-09-15T18:35:56.244Z,99030.30
2022-09-15T18:38:24.340Z,99029.10
2022-09-15T18:40:55.402Z,99029.06
2022-09-15T18:43:26.746Z,99026.33
2022-09-15T18:46:01.668Z,99030.17
2022-09-15T18:48:31.377Z,99032.05
2022-09-15T18:50:59.100Z,99037.24
2022-09-15T18:53:27.409Z,99030.00
2022-09-15T18:55:55.168Z,99026.09
2022-09-15T18:58:22.891Z,99030.33
2022-09-15T19:00:50.640Z,99036.35
2022-09-15T19:03:18.471Z,99033.14
2022-09-15T19:05:46.230Z,99034.80
2022-09-15T19:08:13.983Z,99035.64
2022-09-15T19:10:44.287Z,99038.37
2022-09-15T19:13:14.327Z,99041.31
2022-09-15T19:15:44.028Z,99042.16
2022-09-15T19:18:12.173Z,99040.61
2022-09-15T19:20:40.603Z,99034.84
2022-09-15T19:23:09.424Z,99034.13
2022-09-15T19:25:37.186Z,99032.13
2022-09-15T19:28:05.202Z,99035.23
2022-09-15T19:30:33.126Z,99042.09
2022-09-15T19:33:04.105Z,99045.20
2022-09-15T19:35:31.870Z,99045.23
2022-09-15T19:37:59.590Z,99051.27
2022-09-15T19:40:27.420Z,99052.30
2022-09-15T19:42:55.153Z,99047.02
2022-09-15T19:45:23.033Z,99051.46
2022-09-15T19:47:50.746Z,99049.16
2022-09-15T19:50:18.553Z,99048.60
2022-09-15T19:52:46.621Z,99050.86
2022-09-15T19:55:14.415Z,99056.02
2022-09-15T19:57:42.876Z,99058.48
2022-09-15T20:00:14.401Z,99056.09
2022-09-15T20:02:42.248Z,99055.29
2022-09-15T20:07:55.006Z,99063.28
2022-09-15T20:10:22.674Z,99063.54
2022-09-15T20:12:50.364Z,99061.19
2022-09-15T20:15:18.196Z,99063.84
2022-09-15T20:17:45.961Z,99063.09
2022-09-15T20:20:13.931Z,99063.48
2022-09-15T20:22:41.608Z,99062.40
2022-09-15T20:25:09.280Z,99058.55
2022-09-15T20:27:37.132Z,99063.84
2022-09-15T20:30:22.218Z,99061.57
2022-09-15T20:32:50.049Z,99056.27
2022-09-15T20:35:17.833Z,99060.16
2022-09-15T20:37:45.580Z,99059.36
2022-09-15T20:40:13.498Z,99060.84
2022-09-15T20:42:41.626Z,99065.23
2022-09-15T20:45:10.391Z,99060.52
2022-09-15T20:47:38.632Z,99058.83
2022-09-15T20:50:06.898Z,99059.83
2022-09-15T20:52:38.278Z,99062.58
2022-09-15T20:55:07.137Z,99062.23
2022-09-15T20:57:34.882Z,99062.92
2022-09-15T21:00:05.098Z,99062.38
2022-09-15T21:02:33.094Z,99065.33
2022-09-15T21:05:00.827Z,99063.42
2022-09-15T21:07:28.569Z,99064.94
2022-09-15T21:09:56.228Z,99062.33
2022-09-15T21:12:23.897Z,99064.34
2022-09-15T21:14:51.855Z,99065.23
2022-09-15T21:17:20.056Z,99069.02
2022-09-15T21:19:47.674Z,99066.15
2022-09-15T21:22:15.309Z,99069.73
2022-09-15T21:24:43.014Z,99073.31
2022-09-15T21:27:30.129Z,99078.48
2022-09-15T21:29:59.003Z,99082.64
2022-09-15T21:32:26.791Z,99081.45
2022-09-15T21:34:56.079Z,99082.86
2022-09-15T21:37:27.224Z,99088.63
2022-09-15T21:39:55.041Z,99090.82
2022-09-15T21:42:22.968Z,99096.29
2022-09-15T21:44:51.350Z,99097.66
2022-09-15T21:47:21.877Z,99100.20
2022-09-15T21:49:51.811Z,99097.80
2022-09-15T21:52:19.474Z,99100.62
2022-09-15T21:54:47.222Z,99099.20
2022-09-15T21:57:15.494Z,99102.56
2022-09-15T21:59:43.153Z,99103.27
2022-09-15T22:02:11.715Z,99107.33
2022-09-15T22:04:39.787Z,99105.40
2022-09-15T22:07:07.858Z,99107.56
2022-09-15T22:09:35.823Z,99103.59
2022-09-15T22:12:03.586Z,99108.89
2022-09-15T22:14:31.323Z,99104.01
2022-09-15T22:16:59.112Z,99105.14
2022-09-15T22:19:26.834Z,99110.73
2022-09-15T22:21:54.477Z,99111.55
2022-09-15T22:24:22.211Z,99115.38
2022-09-15T22:26:50.190Z,99118.91
2022-09-15T22:29:17.932Z,99119.40
2022-09-15T22:31:45.745Z,99121.92
2022-09-15T22:34:13.563Z,99124.10
2022-09-15T22:36:41.315Z,99131.87
2022-09-15T22:39:11.574Z,99132.45
2022-09-15T22:41:39.979Z,99130.66
2022-09-15T22:44:17.831Z,99132.86
2022-09-15T22:46:46.135Z,99132.58
2022-09-15T22:49:14.316Z,99125.43
2022-09-15T22:51:42.174Z,99126.07
2022-09-15T22:54:09.938Z,99126.75
2022-09-15T22:56:37.765Z,99127.95
2022-09-15T22:59:05.954Z,99131.73
2022-09-15T23:01:33.809Z,99133.15
2022-09-15T23:04:02.531Z,99133.71
2022-09-15T23:06:34.635Z,99131.90
2022-09-15T23:09:06.348Z,99133.64
2022-09-15T23:11:35.283Z,99134.21
2022-09-15T23:14:03.613Z,99137.99
2022-09-15T23:16:31.655Z,99143.33
2022-09-15T23:19:00.926Z,99144.45
2022-09-15T23:21:28.818Z,99146.46
2022-09-15T23:23:57.218Z,99140.73
2022-09-15T23:26:26.135Z,99139.80
2022-09-15T23:28:54.327Z,99139.67
2022-09-15T23:31:22.274Z,99144.53
2022-09-15T23:33:49.983Z,99143.02
2022-09-15T23:36:21.331Z,99138.06
2022-09-15T23:38:50.068Z,99140.48
2022-09-15T23:41:18.678Z,99146.65
2022-09-15T23:43:47.406Z,99144.12
2022-09-15T23:46:17.553Z,99142.72
2022-09-15T23:48:45.345Z,99138.63
2022-09-15T23:51:13.255Z,99143.45
2022-09-15T23:53:40.976Z,99146.55
2022-09-15T23:56:08.638Z,99146.19
2022-09-15T23:58:36.534Z,99150.48
